sensor_id;sensor_type;location;lat;lon;timestamp;P1;durP1;ratioP1;P2;durP2;ratioP2
4391;SDS011;2210;51.938;8.488;2024-03-02T00:03:24;4.13;;;3.72;;
4391;SDS011;2210;51.938;8.488;2024-03-02T00:07:24;4.57;;;4.10;;
4391;SDS011;2210;51.938;8.488;2024-03-02T00:11:25;4.07;;;3.67;;
4391;SDS011;2210;51.938;8.488;2024-03-02T00:19:57;4.80;;;4.00;;
4391;SDS011;2210;51.938;8.488;2024-03-02T00:23:57;5.07;;;4.40;;
4391;SDS011;2210;51.938;8.488;2024-03-02T00:28:04;5.70;;;4.20;;
4391;SDS011;2210;51.938;8.488;2024-03-02T00:32:19;5.03;;;4.37;;
4391;SDS011;2210;51.938;8.488;2024-03-02T00:36:32;5.33;;;4.67;;
4391;SDS011;2210;51.938;8.488;2024-03-02T00:40:33;4.70;;;4.30;;
4391;SDS011;2210;51.938;8.488;2024-03-02T00:44:36;4.05;;;3.65;;
4391;SDS011;2210;51.938;8.488;2024-03-02T00:48:53;5.10;;;3.97;;
4391;SDS011;2210;51.938;8.488;2024-03-02T00:52:55;5.20;;;4.13;;
4391;SDS011;2210;51.938;8.488;2024-03-02T00:57:05;4.87;;;4.20;;
4391;SDS011;2210;51.938;8.488;2024-03-02T01:01:05;5.30;;;4.80;;
4391;SDS011;2210;51.938;8.488;2024-03-02T01:05:07;4.23;;;3.60;;
4391;SDS011;2210;51.938;8.488;2024-03-02T01:09:14;4.03;;;3.67;;
4391;SDS011;2210;51.938;8.488;2024-03-02T01:13:14;4.10;;;3.67;;
4391;SDS011;2210;51.938;8.488;2024-03-02T01:17:20;4.20;;;3.83;;
4391;SDS011;2210;51.938;8.488;2024-03-02T01:21:21;4.97;;;4.47;;
4391;SDS011;2210;51.938;8.488;2024-03-02T01:25:21;4.82;;;4.43;;
4391;SDS011;2210;51.938;8.488;2024-03-02T01:29:24;4.37;;;3.93;;
4391;SDS011;2210;51.938;8.488;2024-03-02T01:33:24;5.10;;;4.43;;
4391;SDS011;2210;51.938;8.488;2024-03-02T01:37:25;6.40;;;4.70;;
4391;SDS011;2210;51.938;8.488;2024-03-02T01:41:25;4.00;;;3.55;;
4391;SDS011;2210;51.938;8.488;2024-03-02T01:45:28;5.00;;;3.60;;
4391;SDS011;2210;51.938;8.488;2024-03-02T01:49:29;4.10;;;3.70;;
4391;SDS011;2210;51.938;8.488;2024-03-02T01:53:29;4.57;;;4.17;;
4391;SDS011;2210;51.938;8.488;2024-03-02T01:57:29;4.68;;;4.15;;
4391;SDS011;2210;51.938;8.488;2024-03-02T02:01:32;4.60;;;3.53;;
4391;SDS011;2210;51.938;8.488;2024-03-02T02:05:33;3.90;;;3.50;;
4391;SDS011;2210;51.938;8.488;2024-03-02T02:09:35;4.03;;;3.60;;
4391;SDS011;2210;51.938;8.488;2024-03-02T02:13:35;4.00;;;3.43;;
4391;SDS011;2210;51.938;8.488;2024-03-02T02:17:41;4.40;;;3.90;;
4391;SDS011;2210;51.938;8.488;2024-03-02T02:21:42;4.73;;;4.00;;
4391;SDS011;2210;51.938;8.488;2024-03-02T02:25:43;6.03;;;4.67;;
4391;SDS011;2210;51.938;8.488;2024-03-02T02:29:43;6.20;;;4.28;;
4391;SDS011;2210;51.938;8.488;2024-03-02T02:33:43;4.03;;;3.63;;
4391;SDS011;2210;51.938;8.488;2024-03-02T02:37:44;4.97;;;3.97;;
4391;SDS011;2210;51.938;8.488;2024-03-02T02:41:46;5.20;;;4.10;;
4391;SDS011;2210;51.938;8.488;2024-03-02T02:45:46;4.40;;;4.00;;
4391;SDS011;2210;51.938;8.488;2024-03-02T02:49:50;4.53;;;4.10;;
4391;SDS011;2210;51.938;8.488;2024-03-02T02:53:50;4.03;;;3.60;;
4391;SDS011;2210;51.938;8.488;2024-03-02T02:57:51;4.30;;;3.90;;
4391;SDS011;2210;51.938;8.488;2024-03-02T03:01:51;4.22;;;3.83;;
4391;SDS011;2210;51.938;8.488;2024-03-02T03:05:57;4.60;;;3.97;;
4391;SDS011;2210;51.938;8.488;2024-03-02T03:09:57;4.40;;;3.90;;
4391;SDS011;2210;51.938;8.488;2024-03-02T03:13:58;5.72;;;5.00;;
4391;SDS011;2210;51.938;8.488;2024-03-02T03:18:00;4.17;;;3.77;;
4391;SDS011;2210;51.938;8.488;2024-03-02T03:22:00;3.92;;;3.63;;
4391;SDS011;2210;51.938;8.488;2024-03-02T03:26:00;4.00;;;3.60;;
4391;SDS011;2210;51.938;8.488;2024-03-02T03:30:01;5.60;;;4.73;;
4391;SDS011;2210;51.938;8.488;2024-03-02T03:34:04;5.23;;;4.67;;
4391;SDS011;2210;51.938;8.488;2024-03-02T03:38:04;5.40;;;4.30;;
4391;SDS011;2210;51.938;8.488;2024-03-02T03:42:05;5.93;;;4.20;;
4391;SDS011;2210;51.938;8.488;2024-03-02T03:46:05;6.47;;;5.57;;
4391;SDS011;2210;51.938;8.488;2024-03-02T03:50:05;5.07;;;4.57;;
4391;SDS011;2210;51.938;8.488;2024-03-02T03:54:07;5.13;;;4.63;;
4391;SDS011;2210;51.938;8.488;2024-03-02T03:58:07;7.72;;;5.03;;
4391;SDS011;2210;51.938;8.488;2024-03-02T04:02:13;6.47;;;5.88;;
4391;SDS011;2210;51.938;8.488;2024-03-02T04:06:14;7.43;;;6.20;;
4391;SDS011;2210;51.938;8.488;2024-03-02T04:10:16;7.63;;;5.97;;
4391;SDS011;2210;51.938;8.488;2024-03-02T04:14:17;7.07;;;5.00;;
4391;SDS011;2210;51.938;8.488;2024-03-02T04:18:17;5.80;;;4.77;;
4391;SDS011;2210;51.938;8.488;2024-03-02T04:22:18;8.43;;;6.47;;
4391;SDS011;2210;51.938;8.488;2024-03-02T04:26:18;6.22;;;5.50;;
4391;SDS011;2210;51.938;8.488;2024-03-02T04:30:22;6.20;;;5.50;;
4391;SDS011;2210;51.938;8.488;2024-03-02T04:34:22;6.73;;;5.20;;
4391;SDS011;2210;51.938;8.488;2024-03-02T04:38:22;8.30;;;6.30;;
4391;SDS011;2210;51.938;8.488;2024-03-02T04:42:23;7.67;;;6.27;;
4391;SDS011;2210;51.938;8.488;2024-03-02T04:46:24;13.50;;;6.13;;
4391;SDS011;2210;51.938;8.488;2024-03-02T04:50:30;8.20;;;6.50;;
4391;SDS011;2210;51.938;8.488;2024-03-02T04:54:30;9.33;;;6.47;;
4391;SDS011;2210;51.938;8.488;2024-03-02T04:58:31;6.82;;;6.07;;
4391;SDS011;2210;51.938;8.488;2024-03-02T05:02:31;8.60;;;6.00;;
4391;SDS011;2210;51.938;8.488;2024-03-02T05:06:31;6.57;;;5.53;;
4391;SDS011;2210;51.938;8.488;2024-03-02T05:10:35;9.03;;;5.93;;
4391;SDS011;2210;51.938;8.488;2024-03-02T05:14:36;8.27;;;6.23;;
4391;SDS011;2210;51.938;8.488;2024-03-02T05:18:37;7.70;;;6.73;;
4391;SDS011;2210;51.938;8.488;2024-03-02T05:22:38;7.33;;;6.37;;
4391;SDS011;2210;51.938;8.488;2024-03-02T05:26:39;7.43;;;6.40;;
4391;SDS011;2210;51.938;8.488;2024-03-02T05:30:39;8.48;;;6.93;;
4391;SDS011;2210;51.938;8.488;2024-03-02T05:34:45;8.30;;;6.27;;
4391;SDS011;2210;51.938;8.488;2024-03-02T05:38:46;7.47;;;5.30;;
4391;SDS011;2210;51.938;8.488;2024-03-02T05:42:46;10.35;;;7.10;;
4391;SDS011;2210;51.938;8.488;2024-03-02T05:46:50;7.13;;;6.43;;
4391;SDS011;2210;51.938;8.488;2024-03-02T05:50:53;7.73;;;6.07;;
4391;SDS011;2210;51.938;8.488;2024-03-02T05:54:53;7.90;;;6.37;;
4391;SDS011;2210;51.938;8.488;2024-03-02T05:58:53;8.90;;;5.95;;
4391;SDS011;2210;51.938;8.488;2024-03-02T06:03:15;7.80;;;6.57;;
4391;SDS011;2210;51.938;8.488;2024-03-02T06:07:15;10.90;;;6.23;;
4391;SDS011;2210;51.938;8.488;2024-03-02T06:11:16;7.22;;;5.50;;
4391;SDS011;2210;51.938;8.488;2024-03-02T06:15:16;7.87;;;6.17;;
4391;SDS011;2210;51.938;8.488;2024-03-02T06:19:17;7.20;;;5.70;;
4391;SDS011;2210;51.938;8.488;2024-03-02T06:23:17;7.30;;;5.80;;
4391;SDS011;2210;51.938;8.488;2024-03-02T06:27:18;7.40;;;5.87;;
4391;SDS011;2210;51.938;8.488;2024-03-02T06:31:19;10.90;;;6.80;;
4391;SDS011;2210;51.938;8.488;2024-03-02T06:35:19;9.90;;;6.38;;
4391;SDS011;2210;51.938;8.488;2024-03-02T06:39:19;8.00;;;6.20;;
4391;SDS011;2210;51.938;8.488;2024-03-02T06:43:22;6.85;;;5.82;;
4391;SDS011;2210;51.938;8.488;2024-03-02T06:47:23;7.13;;;5.77;;
4391;SDS011;2210;51.938;8.488;2024-03-02T06:51:23;9.82;;;6.50;;
4391;SDS011;2210;51.938;8.488;2024-03-02T06:55:23;10.68;;;6.85;;
4391;SDS011;2210;51.938;8.488;2024-03-02T06:59:24;8.23;;;6.17;;
4391;SDS011;2210;51.938;8.488;2024-03-02T07:03:27;8.30;;;6.80;;
4391;SDS011;2210;51.938;8.488;2024-03-02T07:07:27;9.60;;;6.60;;
4391;SDS011;2210;51.938;8.488;2024-03-02T07:11:28;8.70;;;6.70;;
4391;SDS011;2210;51.938;8.488;2024-03-02T07:15:28;7.17;;;5.80;;
4391;SDS011;2210;51.938;8.488;2024-03-02T07:19:28;8.48;;;6.50;;
4391;SDS011;2210;51.938;8.488;2024-03-02T07:23:28;8.32;;;6.55;;
4391;SDS011;2210;51.938;8.488;2024-03-02T07:27:30;8.20;;;7.20;;
4391;SDS011;2210;51.938;8.488;2024-03-02T07:31:31;8.47;;;6.10;;
4391;SDS011;2210;51.938;8.488;2024-03-02T07:35:37;8.67;;;6.83;;
4391;SDS011;2210;51.938;8.488;2024-03-02T07:39:37;8.53;;;6.63;;
4391;SDS011;2210;51.938;8.488;2024-03-02T07:43:38;7.13;;;5.57;;
4391;SDS011;2210;51.938;8.488;2024-03-02T07:47:39;8.70;;;6.10;;
4391;SDS011;2210;51.938;8.488;2024-03-02T07:51:39;8.73;;;6.87;;
4391;SDS011;2210;51.938;8.488;2024-03-02T07:55:39;8.93;;;6.80;;
4391;SDS011;2210;51.938;8.488;2024-03-02T07:59:40;8.67;;;6.00;;
4391;SDS011;2210;51.938;8.488;2024-03-02T08:03:43;9.80;;;6.53;;
4391;SDS011;2210;51.938;8.488;2024-03-02T08:07:48;8.47;;;6.03;;
4391;SDS011;2210;51.938;8.488;2024-03-02T08:11:52;11.60;;;6.93;;
4391;SDS011;2210;51.938;8.488;2024-03-02T08:15:52;6.90;;;5.20;;
4391;SDS011;2210;51.938;8.488;2024-03-02T08:19:52;7.60;;;6.15;;
4391;SDS011;2210;51.938;8.488;2024-03-02T08:23:53;8.03;;;6.20;;
4391;SDS011;2210;51.938;8.488;2024-03-02T08:27:54;8.43;;;6.70;;
4391;SDS011;2210;51.938;8.488;2024-03-02T08:31:54;8.35;;;6.00;;
4391;SDS011;2210;51.938;8.488;2024-03-02T08:35:54;9.50;;;5.57;;
4391;SDS011;2210;51.938;8.488;2024-03-02T08:39:55;7.97;;;6.60;;
4391;SDS011;2210;51.938;8.488;2024-03-02T08:43:56;7.37;;;5.43;;
4391;SDS011;2210;51.938;8.488;2024-03-02T08:47:56;6.83;;;5.50;;
4391;SDS011;2210;51.938;8.488;2024-03-02T08:51:56;8.07;;;5.97;;
4391;SDS011;2210;51.938;8.488;2024-03-02T08:55:57;6.78;;;5.72;;
4391;SDS011;2210;51.938;8.488;2024-03-02T08:59:57;8.10;;;6.27;;
4391;SDS011;2210;51.938;8.488;2024-03-02T09:03:57;7.20;;;5.50;;
4391;SDS011;2210;51.938;8.488;2024-03-02T09:07:58;6.17;;;5.30;;
4391;SDS011;2210;51.938;8.488;2024-03-02T09:11:58;6.80;;;5.28;;
4391;SDS011;2210;51.938;8.488;2024-03-02T09:15:58;6.20;;;4.57;;
4391;SDS011;2210;51.938;8.488;2024-03-02T09:19:58;2.93;;;2.60;;
4391;SDS011;2210;51.938;8.488;2024-03-02T09:23:59;5.40;;;4.88;;
4391;SDS011;2210;51.938;8.488;2024-03-02T09:27:59;6.30;;;4.10;;
4391;SDS011;2210;51.938;8.488;2024-03-02T09:31:59;5.30;;;4.47;;
4391;SDS011;2210;51.938;8.488;2024-03-02T09:35:59;6.90;;;4.63;;
4391;SDS011;2210;51.938;8.488;2024-03-02T09:40:00;5.37;;;4.20;;
4391;SDS011;2210;51.938;8.488;2024-03-02T09:44:00;6.47;;;4.97;;
4391;SDS011;2210;51.938;8.488;2024-03-02T09:48:02;7.30;;;4.70;;
4391;SDS011;2210;51.938;8.488;2024-03-02T09:52:02;6.47;;;5.10;;
4391;SDS011;2210;51.938;8.488;2024-03-02T09:56:03;6.70;;;5.50;;
4391;SDS011;2210;51.938;8.488;2024-03-02T10:00:04;7.00;;;4.47;;
4391;SDS011;2210;51.938;8.488;2024-03-02T10:04:05;5.27;;;4.57;;
4391;SDS011;2210;51.938;8.488;2024-03-02T10:08:05;5.80;;;4.68;;
4391;SDS011;2210;51.938;8.488;2024-03-02T10:12:07;6.50;;;5.00;;
4391;SDS011;2210;51.938;8.488;2024-03-02T10:16:14;9.03;;;4.90;;
4391;SDS011;2210;51.938;8.488;2024-03-02T10:20:26;5.13;;;4.60;;
4391;SDS011;2210;51.938;8.488;2024-03-02T10:28:45;5.40;;;4.33;;
4391;SDS011;2210;51.938;8.488;2024-03-02T10:32:50;3.90;;;3.50;;
4391;SDS011;2210;51.938;8.488;2024-03-02T10:36:52;5.53;;;4.40;;
4391;SDS011;2210;51.938;8.488;2024-03-02T10:40:53;6.60;;;4.43;;
4391;SDS011;2210;51.938;8.488;2024-03-02T10:44:55;6.93;;;3.47;;
4391;SDS011;2210;51.938;8.488;2024-03-02T10:48:59;6.00;;;3.80;;
4391;SDS011;2210;51.938;8.488;2024-03-02T10:53:00;4.10;;;3.70;;
4391;SDS011;2210;51.938;8.488;2024-03-02T10:57:01;4.10;;;3.70;;
4391;SDS011;2210;51.938;8.488;2024-03-02T11:01:09;5.70;;;3.10;;
4391;SDS011;2210;51.938;8.488;2024-03-02T11:05:12;2.90;;;2.70;;
4391;SDS011;2210;51.938;8.488;2024-03-02T11:09:18;3.87;;;3.40;;
4391;SDS011;2210;51.938;8.488;2024-03-02T11:13:22;4.47;;;3.70;;
4391;SDS011;2210;51.938;8.488;2024-03-02T11:17:30;3.90;;;3.50;;
4391;SDS011;2210;51.938;8.488;2024-03-02T11:21:34;4.87;;;3.90;;
4391;SDS011;2210;51.938;8.488;2024-03-02T11:25:35;5.67;;;3.67;;
4391;SDS011;2210;51.938;8.488;2024-03-02T11:33:36;5.27;;;4.03;;
4391;SDS011;2210;51.938;8.488;2024-03-02T11:37:36;4.77;;;3.90;;
4391;SDS011;2210;51.938;8.488;2024-03-02T11:41:37;6.43;;;4.40;;
4391;SDS011;2210;51.938;8.488;2024-03-02T11:45:37;4.57;;;3.57;;
4391;SDS011;2210;51.938;8.488;2024-03-02T11:49:44;4.70;;;4.17;;
4391;SDS011;2210;51.938;8.488;2024-03-02T11:53:51;4.90;;;3.10;;
4391;SDS011;2210;51.938;8.488;2024-03-02T11:57:54;3.20;;;2.90;;
4391;SDS011;2210;51.938;8.488;2024-03-02T12:01:54;4.23;;;3.30;;
4391;SDS011;2210;51.938;8.488;2024-03-02T12:05:55;3.67;;;3.00;;
4391;SDS011;2210;51.938;8.488;2024-03-02T12:09:59;6.97;;;3.60;;
4391;SDS011;2210;51.938;8.488;2024-03-02T12:14:01;3.33;;;2.93;;
4391;SDS011;2210;51.938;8.488;2024-03-02T12:18:01;3.70;;;3.00;;
4391;SDS011;2210;51.938;8.488;2024-03-02T12:22:08;4.53;;;2.80;;
4391;SDS011;2210;51.938;8.488;2024-03-02T12:26:08;3.73;;;2.57;;
4391;SDS011;2210;51.938;8.488;2024-03-02T12:30:11;2.87;;;2.57;;
4391;SDS011;2210;51.938;8.488;2024-03-02T12:34:13;2.40;;;2.20;;
4391;SDS011;2210;51.938;8.488;2024-03-02T12:38:16;2.40;;;2.07;;
4391;SDS011;2210;51.938;8.488;2024-03-02T12:42:16;2.80;;;2.40;;
4391;SDS011;2210;51.938;8.488;2024-03-02T12:46:16;3.60;;;2.80;;
4391;SDS011;2210;51.938;8.488;2024-03-02T12:50:17;3.30;;;2.77;;
4391;SDS011;2210;51.938;8.488;2024-03-02T12:54:17;4.90;;;3.20;;
4391;SDS011;2210;51.938;8.488;2024-03-02T12:58:19;3.93;;;3.37;;
4391;SDS011;2210;51.938;8.488;2024-03-02T13:02:21;2.70;;;2.50;;
4391;SDS011;2210;51.938;8.488;2024-03-02T13:06:21;3.97;;;3.00;;
4391;SDS011;2210;51.938;8.488;2024-03-02T13:10:22;2.97;;;2.67;;
4391;SDS011;2210;51.938;8.488;2024-03-02T13:14:22;2.17;;;1.97;;
4391;SDS011;2210;51.938;8.488;2024-03-02T13:18:24;3.20;;;2.90;;
4391;SDS011;2210;51.938;8.488;2024-03-02T13:22:25;3.10;;;2.63;;
4391;SDS011;2210;51.938;8.488;2024-03-02T13:26:26;2.77;;;2.50;;
4391;SDS011;2210;51.938;8.488;2024-03-02T13:30:26;3.30;;;3.00;;
4391;SDS011;2210;51.938;8.488;2024-03-02T13:34:26;3.67;;;2.80;;
4391;SDS011;2210;51.938;8.488;2024-03-02T13:38:26;2.38;;;2.05;;
4391;SDS011;2210;51.938;8.488;2024-03-02T13:42:27;2.30;;;2.10;;
4391;SDS011;2210;51.938;8.488;2024-03-02T13:46:30;2.20;;;2.00;;
4391;SDS011;2210;51.938;8.488;2024-03-02T13:50:30;3.30;;;2.50;;
4391;SDS011;2210;51.938;8.488;2024-03-02T13:54:30;2.97;;;2.30;;
4391;SDS011;2210;51.938;8.488;2024-03-02T13:58:31;3.17;;;2.40;;
4391;SDS011;2210;51.938;8.488;2024-03-02T14:02:32;2.13;;;1.90;;
4391;SDS011;2210;51.938;8.488;2024-03-02T14:06:32;2.70;;;2.20;;
4391;SDS011;2210;51.938;8.488;2024-03-02T14:10:32;2.38;;;2.17;;
4391;SDS011;2210;51.938;8.488;2024-03-02T14:14:32;2.67;;;2.13;;
4391;SDS011;2210;51.938;8.488;2024-03-02T14:18:33;4.40;;;2.30;;
4391;SDS011;2210;51.938;8.488;2024-03-02T14:22:33;2.47;;;2.00;;
4391;SDS011;2210;51.938;8.488;2024-03-02T14:26:34;3.20;;;2.43;;
4391;SDS011;2210;51.938;8.488;2024-03-02T14:30:34;2.40;;;2.20;;
4391;SDS011;2210;51.938;8.488;2024-03-02T14:34:35;2.05;;;1.85;;
4391;SDS011;2210;51.938;8.488;2024-03-02T14:38:35;1.83;;;1.73;;
4391;SDS011;2210;51.938;8.488;2024-03-02T14:42:35;4.00;;;2.20;;
4391;SDS011;2210;51.938;8.488;2024-03-02T14:46:36;1.87;;;1.77;;
4391;SDS011;2210;51.938;8.488;2024-03-02T14:50:36;1.80;;;1.67;;
4391;SDS011;2210;51.938;8.488;2024-03-02T14:54:36;2.10;;;1.70;;
4391;SDS011;2210;51.938;8.488;2024-03-02T14:58:37;2.33;;;2.10;;
4391;SDS011;2210;51.938;8.488;2024-03-02T15:02:38;2.10;;;1.77;;
4391;SDS011;2210;51.938;8.488;2024-03-02T15:06:38;2.80;;;1.97;;
4391;SDS011;2210;51.938;8.488;2024-03-02T15:10:38;1.55;;;1.45;;
4391;SDS011;2210;51.938;8.488;2024-03-02T15:14:39;1.50;;;1.40;;
4391;SDS011;2210;51.938;8.488;2024-03-02T15:18:45;2.63;;;1.60;;
4391;SDS011;2210;51.938;8.488;2024-03-02T15:22:46;2.07;;;1.80;;
4391;SDS011;2210;51.938;8.488;2024-03-02T15:26:46;1.53;;;1.43;;
4391;SDS011;2210;51.938;8.488;2024-03-02T15:30:46;1.63;;;1.50;;
4391;SDS011;2210;51.938;8.488;2024-03-02T15:34:47;1.10;;;0.93;;
4391;SDS011;2210;51.938;8.488;2024-03-02T15:38:47;1.38;;;1.27;;
4391;SDS011;2210;51.938;8.488;2024-03-02T15:42:48;1.47;;;1.37;;
4391;SDS011;2210;51.938;8.488;2024-03-02T15:46:48;3.03;;;1.30;;
4391;SDS011;2210;51.938;8.488;2024-03-02T15:50:48;3.70;;;1.47;;
4391;SDS011;2210;51.938;8.488;2024-03-02T15:54:50;2.07;;;1.70;;
4391;SDS011;2210;51.938;8.488;2024-03-02T15:58:50;1.70;;;1.40;;
4391;SDS011;2210;51.938;8.488;2024-03-02T16:02:51;2.00;;;1.40;;
4391;SDS011;2210;51.938;8.488;2024-03-02T16:06:51;1.10;;;1.00;;
4391;SDS011;2210;51.938;8.488;2024-03-02T16:10:51;2.20;;;1.30;;
4391;SDS011;2210;51.938;8.488;2024-03-02T16:14:53;2.50;;;1.37;;
4391;SDS011;2210;51.938;8.488;2024-03-02T16:18:53;1.30;;;1.10;;
4391;SDS011;2210;51.938;8.488;2024-03-02T16:22:54;4.73;;;1.17;;
4391;SDS011;2210;51.938;8.488;2024-03-02T16:26:54;1.77;;;1.37;;
4391;SDS011;2210;51.938;8.488;2024-03-02T16:30:55;1.13;;;1.03;;
4391;SDS011;2210;51.938;8.488;2024-03-02T16:34:55;1.30;;;1.20;;
4391;SDS011;2210;51.938;8.488;2024-03-02T16:38:55;1.48;;;1.38;;
4391;SDS011;2210;51.938;8.488;2024-03-02T16:42:55;1.48;;;1.20;;
4391;SDS011;2210;51.938;8.488;2024-03-02T16:46:56;1.30;;;1.20;;
4391;SDS011;2210;51.938;8.488;2024-03-02T16:50:57;1.80;;;1.37;;
4391;SDS011;2210;51.938;8.488;2024-03-02T16:54:57;1.17;;;1.07;;
4391;SDS011;2210;51.938;8.488;2024-03-02T16:58:57;8.00;;;1.23;;
4391;SDS011;2210;51.938;8.488;2024-03-02T17:02:57;2.45;;;1.27;;
4391;SDS011;2210;51.938;8.488;2024-03-02T17:06:58;4.80;;;2.40;;
4391;SDS011;2210;51.938;8.488;2024-03-02T17:10:58;2.33;;;2.13;;
4391;SDS011;2210;51.938;8.488;2024-03-02T17:14:58;3.40;;;2.00;;
4391;SDS011;2210;51.938;8.488;2024-03-02T17:18:59;2.60;;;2.10;;
4391;SDS011;2210;51.938;8.488;2024-03-02T17:22:59;2.50;;;1.77;;
4391;SDS011;2210;51.938;8.488;2024-03-02T17:26:59;1.50;;;1.20;;
4391;SDS011;2210;51.938;8.488;2024-03-02T17:31:02;1.87;;;1.60;;
4391;SDS011;2210;51.938;8.488;2024-03-02T17:35:06;2.60;;;2.40;;
4391;SDS011;2210;51.938;8.488;2024-03-02T17:39:13;1.90;;;1.77;;
4391;SDS011;2210;51.938;8.488;2024-03-02T17:43:16;2.20;;;2.00;;
4391;SDS011;2210;51.938;8.488;2024-03-02T17:47:16;2.50;;;1.83;;
4391;SDS011;2210;51.938;8.488;2024-03-02T17:51:16;1.60;;;1.50;;
4391;SDS011;2210;51.938;8.488;2024-03-02T17:55:17;2.10;;;1.57;;
4391;SDS011;2210;51.938;8.488;2024-03-02T17:59:17;2.10;;;1.90;;
4391;SDS011;2210;51.938;8.488;2024-03-02T18:03:18;2.27;;;2.00;;
4391;SDS011;2210;51.938;8.488;2024-03-02T18:07:18;2.00;;;1.63;;
4391;SDS011;2210;51.938;8.488;2024-03-02T18:11:19;2.10;;;1.70;;
4391;SDS011;2210;51.938;8.488;2024-03-02T18:15:20;2.10;;;1.87;;
4391;SDS011;2210;51.938;8.488;2024-03-02T18:19:20;1.60;;;1.50;;
4391;SDS011;2210;51.938;8.488;2024-03-02T18:23:20;3.50;;;2.08;;
4391;SDS011;2210;51.938;8.488;2024-03-02T18:27:20;3.13;;;1.83;;
4391;SDS011;2210;51.938;8.488;2024-03-02T18:31:21;2.23;;;2.03;;
4391;SDS011;2210;51.938;8.488;2024-03-02T18:35:22;2.23;;;2.00;;
4391;SDS011;2210;51.938;8.488;2024-03-02T18:39:22;5.65;;;2.20;;
4391;SDS011;2210;51.938;8.488;2024-03-02T18:43:22;2.40;;;2.20;;
4391;SDS011;2210;51.938;8.488;2024-03-02T18:47:23;2.43;;;2.23;;
4391;SDS011;2210;51.938;8.488;2024-03-02T18:51:24;4.53;;;1.70;;
4391;SDS011;2210;51.938;8.488;2024-03-02T18:55:25;4.97;;;2.13;;
4391;SDS011;2210;51.938;8.488;2024-03-02T18:59:25;2.83;;;2.47;;
4391;SDS011;2210;51.938;8.488;2024-03-02T19:03:26;2.70;;;2.50;;
4391;SDS011;2210;51.938;8.488;2024-03-02T19:07:26;2.53;;;2.30;;
4391;SDS011;2210;51.938;8.488;2024-03-02T19:11:27;3.25;;;2.30;;
4391;SDS011;2210;51.938;8.488;2024-03-02T19:15:27;2.77;;;2.27;;
4391;SDS011;2210;51.938;8.488;2024-03-02T19:19:30;2.72;;;2.53;;
4391;SDS011;2210;51.938;8.488;2024-03-02T19:23:33;2.73;;;2.40;;
4391;SDS011;2210;51.938;8.488;2024-03-02T19:27:34;4.37;;;2.70;;
4391;SDS011;2210;51.938;8.488;2024-03-02T19:31:34;2.85;;;2.55;;
4391;SDS011;2210;51.938;8.488;2024-03-02T19:35:40;4.93;;;2.13;;
4391;SDS011;2210;51.938;8.488;2024-03-02T19:39:41;5.30;;;2.67;;
4391;SDS011;2210;51.938;8.488;2024-03-02T19:43:45;3.80;;;2.80;;
4391;SDS011;2210;51.938;8.488;2024-03-02T19:47:45;2.90;;;2.60;;
4391;SDS011;2210;51.938;8.488;2024-03-02T19:51:45;2.58;;;2.17;;
4391;SDS011;2210;51.938;8.488;2024-03-02T19:55:45;2.60;;;2.40;;
4391;SDS011;2210;51.938;8.488;2024-03-02T19:59:46;2.80;;;2.23;;
4391;SDS011;2210;51.938;8.488;2024-03-02T20:03:46;2.53;;;2.23;;
4391;SDS011;2210;51.938;8.488;2024-03-02T20:07:49;2.30;;;2.10;;
4391;SDS011;2210;51.938;8.488;2024-03-02T20:11:50;3.87;;;2.50;;
4391;SDS011;2210;51.938;8.488;2024-03-02T20:15:51;3.23;;;2.17;;
4391;SDS011;2210;51.938;8.488;2024-03-02T20:19:54;2.60;;;2.23;;
4391;SDS011;2210;51.938;8.488;2024-03-02T20:23:55;3.43;;;2.90;;
4391;SDS011;2210;51.938;8.488;2024-03-02T20:27:55;3.73;;;3.37;;
4391;SDS011;2210;51.938;8.488;2024-03-02T20:32:01;3.90;;;2.70;;
4391;SDS011;2210;51.938;8.488;2024-03-02T20:36:02;3.53;;;2.83;;
4391;SDS011;2210;51.938;8.488;2024-03-02T20:40:03;4.30;;;3.03;;
4391;SDS011;2210;51.938;8.488;2024-03-02T20:44:03;5.50;;;3.27;;
4391;SDS011;2210;51.938;8.488;2024-03-02T20:48:07;4.77;;;2.87;;
4391;SDS011;2210;51.938;8.488;2024-03-02T20:52:14;3.27;;;2.97;;
4391;SDS011;2210;51.938;8.488;2024-03-02T20:56:14;4.10;;;3.17;;
4391;SDS011;2210;51.938;8.488;2024-03-02T21:00:20;3.75;;;3.22;;
4391;SDS011;2210;51.938;8.488;2024-03-02T21:04:20;6.40;;;3.23;;
4391;SDS011;2210;51.938;8.488;2024-03-02T21:08:21;4.13;;;3.33;;
4391;SDS011;2210;51.938;8.488;2024-03-02T21:12:21;3.93;;;3.40;;
4391;SDS011;2210;51.938;8.488;2024-03-02T21:16:21;5.15;;;3.88;;
4391;SDS011;2210;51.938;8.488;2024-03-02T21:20:21;3.90;;;3.50;;
4391;SDS011;2210;51.938;8.488;2024-03-02T21:24:22;5.83;;;4.37;;
4391;SDS011;2210;51.938;8.488;2024-03-02T21:28:22;4.15;;;3.55;;
4391;SDS011;2210;51.938;8.488;2024-03-02T21:32:22;4.95;;;4.07;;
4391;SDS011;2210;51.938;8.488;2024-03-02T21:36:22;4.33;;;3.50;;
4391;SDS011;2210;51.938;8.488;2024-03-02T21:40:23;5.13;;;3.92;;
4391;SDS011;2210;51.938;8.488;2024-03-02T21:44:23;4.95;;;3.95;;
4391;SDS011;2210;51.938;8.488;2024-03-02T21:48:23;8.00;;;4.33;;
4391;SDS011;2210;51.938;8.488;2024-03-02T21:52:24;6.87;;;5.00;;
4391;SDS011;2210;51.938;8.488;2024-03-02T21:56:25;4.80;;;4.27;;
4391;SDS011;2210;51.938;8.488;2024-03-02T22:00:26;6.20;;;4.57;;
4391;SDS011;2210;51.938;8.488;2024-03-02T22:04:26;4.85;;;4.35;;
4391;SDS011;2210;51.938;8.488;2024-03-02T22:08:26;6.05;;;4.50;;
4391;SDS011;2210;51.938;8.488;2024-03-02T22:12:27;5.97;;;4.53;;
4391;SDS011;2210;51.938;8.488;2024-03-02T22:16:27;6.60;;;4.78;;
4391;SDS011;2210;51.938;8.488;2024-03-02T22:20:30;5.22;;;4.32;;
4391;SDS011;2210;51.938;8.488;2024-03-02T22:24:31;6.00;;;4.00;;
4391;SDS011;2210;51.938;8.488;2024-03-02T22:28:34;5.07;;;4.17;;
4391;SDS011;2210;51.938;8.488;2024-03-02T22:32:34;4.07;;;3.60;;
4391;SDS011;2210;51.938;8.488;2024-03-02T22:36:38;6.93;;;4.33;;
4391;SDS011;2210;51.938;8.488;2024-03-02T22:40:38;4.23;;;3.37;;
4391;SDS011;2210;51.938;8.488;2024-03-02T22:44:38;7.63;;;4.43;;
4391;SDS011;2210;51.938;8.488;2024-03-02T22:48:39;4.65;;;3.60;;
4391;SDS011;2210;51.938;8.488;2024-03-02T22:52:39;5.40;;;4.20;;
4391;SDS011;2210;51.938;8.488;2024-03-02T22:56:39;4.10;;;3.70;;
4391;SDS011;2210;51.938;8.488;2024-03-02T23:00:39;4.13;;;3.50;;
4391;SDS011;2210;51.938;8.488;2024-03-02T23:04:53;5.60;;;4.20;;
4391;SDS011;2210;51.938;8.488;2024-03-02T23:08:56;4.63;;;3.73;;
4391;SDS011;2210;51.938;8.488;2024-03-02T23:13:00;7.20;;;4.67;;
4391;SDS011;2210;51.938;8.488;2024-03-02T23:17:09;4.17;;;3.67;;
4391;SDS011;2210;51.938;8.488;2024-03-02T23:21:13;4.97;;;4.27;;
4391;SDS011;2210;51.938;8.488;2024-03-02T23:25:13;4.80;;;3.90;;
4391;SDS011;2210;51.938;8.488;2024-03-02T23:29:17;5.43;;;4.17;;
4391;SDS011;2210;51.938;8.488;2024-03-02T23:33:19;7.27;;;4.17;;
4391;SDS011;2210;51.938;8.488;2024-03-02T23:37:19;4.80;;;4.30;;
4391;SDS011;2210;51.938;8.488;2024-03-02T23:41:19;4.22;;;3.63;;
4391;SDS011;2210;51.938;8.488;2024-03-02T23:45:20;4.97;;;3.90;;
4391;SDS011;2210;51.938;8.488;2024-03-02T23:49:20;5.27;;;4.60;;
4391;SDS011;2210;51.938;8.488;2024-03-02T23:53:21;4.40;;;3.90;;
4391;SDS011;2210;51.938;8.488;2024-03-02T23:57:37;4.83;;;4.07;;
